Time;durP1;ratioP1;P1;durP2;ratioP2;P2;SDS_P1;SDS_P2;PMS_P1;PMS_P2;Temp;Humidity;BMP_temperature;BMP_pressure;BME280_temperature;BME280_humidity;BME280_pressure;Samples;Min_cycle;Max_cycle;Signal;HPM_P1;HPM_P2
2023/08/21 00:00:14;;;;;;;0.70;0.47;;;27.60;57.60;;;;;;5062600;28;20221;-81
2023/08/21 00:02:42;;;;;;;0.30;0.30;;;27.60;57.80;;;;;;5072026;28;20205;-80
2023/08/21 00:05:11;;;;;;;0.47;0.30;;;27.50;57.80;;;;;;5069322;28;20210;-81
2023/08/21 00:07:39;;;;;;;0.55;0.55;;;27.50;57.80;;;;;;5070906;28;20190;-80
2023/08/21 00:10:09;;;;;;;0.60;0.60;;;27.50;58.00;;;;;;5071765;28;20190;-82
2023/08/21 00:12:38;;;;;;;0.70;0.70;;;27.50;58.10;;;;;;5068710;28;20201;-80
2023/08/21 00:15:10;;;;;;;0.43;0.38;;;27.50;58.20;;;;;;5070586;28;20205;-81
2023/08/21 00:17:39;;;;;;;0.52;0.52;;;27.40;58.20;;;;;;5072240;28;20245;-79
2023/08/21 00:20:10;;;;;;;2.90;0.82;;;27.30;58.40;;;;;;5069163;28;20189;-81
2023/08/21 00:22:38;;;;;;;1.08;0.93;;;27.40;58.60;;;;;;5078714;28;20716;-81
2023/08/21 00:25:08;;;;;;;0.63;0.63;;;27.30;58.60;;;;;;5074658;28;20815;-81
2023/08/21 00:27:36;;;;;;;0.50;0.50;;;27.30;58.90;;;;;;5071644;28;20199;-81
2023/08/21 00:30:05;;;;;;;0.88;0.47;;;27.20;58.90;;;;;;5071239;28;20538;-81
2023/08/21 00:32:36;;;;;;;0.50;0.50;;;27.20;58.90;;;;;;5070749;28;20265;-80
2023/08/21 00:35:05;;;;;;;0.65;0.50;;;27.20;59.00;;;;;;5071300;28;20197;-81
2023/08/21 00:37:34;;;;;;;0.47;0.47;;;27.10;58.90;;;;;;5071183;28;20529;-81
2023/08/21 00:40:03;;;;;;;7.55;1.73;;;27.10;58.90;;;;;;5070963;28;20644;-81
2023/08/21 00:42:31;;;;;;;0.93;0.65;;;27.10;59.00;;;;;;5072278;28;20198;-81
2023/08/21 00:45:00;;;;;;;1.17;0.30;;;27.10;59.10;;;;;;5070648;28;20208;-82
2023/08/21 00:47:29;;;;;;;0.30;0.30;;;27.10;59.20;;;;;;5072290;28;20576;-81
2023/08/21 00:49:58;;;;;;;0.30;0.30;;;27.10;59.30;;;;;;5071151;28;20303;-81
2023/08/21 00:52:27;;;;;;;0.73;0.73;;;27.10;59.30;;;;;;5070527;28;20206;-82
2023/08/21 00:54:56;;;;;;;0.73;0.73;;;27.10;59.40;;;;;;5071850;28;20181;-80
2023/08/21 00:57:26;;;;;;;2.35;0.70;;;27.10;59.50;;;;;;5074992;28;20840;-81
2023/08/21 00:59:55;;;;;;;1.55;0.70;;;27.00;59.60;;;;;;5073537;28;20923;-81
2023/08/21 01:02:23;;;;;;;2.50;1.10;;;27.00;59.60;;;;;;5074157;28;20222;-81
2023/08/21 01:04:51;;;;;;;0.25;0.20;;;27.00;59.70;;;;;;5074493;28;20194;-81
2023/08/21 01:07:21;;;;;;;0.75;0.40;;;27.00;59.70;;;;;;5075510;28;20856;-81
2023/08/21 01:09:59;;;;;;;0.52;0.43;;;27.00;60.60;;;;;;5074735;28;20214;-81
2023/08/21 01:12:36;;;;;;;0.70;0.55;;;27.00;59.90;;;;;;5074240;28;20198;-82
2023/08/21 01:15:09;;;;;;;0.68;0.60;;;26.90;59.80;;;;;;5072096;28;20189;-82
2023/08/21 01:17:39;;;;;;;0.63;0.50;;;26.90;59.80;;;;;;5077066;28;20225;-81
2023/08/21 01:20:09;;;;;;;0.93;0.85;;;26.90;59.90;;;;;;5075952;28;20222;-81
2023/08/21 01:22:40;;;;;;;0.95;0.70;;;26.90;60.00;;;;;;5076184;28;20664;-81
2023/08/21 01:25:10;;;;;;;0.43;0.38;;;26.90;59.90;;;;;;5075974;28;20925;-81
2023/08/21 01:27:43;;;;;;;0.47;0.40;;;26.90;59.90;;;;;;5075871;28;20208;-82
2023/08/21 01:30:12;;;;;;;0.28;0.28;;;26.90;60.10;;;;;;5074950;28;20292;-81
2023/08/21 01:32:46;;;;;;;0.65;0.60;;;26.90;60.10;;;;;;5076167;28;20201;-81
2023/08/21 01:35:15;;;;;;;0.40;0.40;;;26.90;60.20;;;;;;5074024;28;20199;-82
2023/08/21 01:37:44;;;;;;;0.57;0.57;;;26.90;60.60;;;;;;5075402;28;20229;-82
2023/08/21 01:40:20;;;;;;;0.80;0.73;;;26.90;60.60;;;;;;5074576;28;20199;-81
2023/08/21 01:42:49;;;;;;;0.85;0.70;;;26.80;60.50;;;;;;5076142;28;20653;-82
2023/08/21 01:45:17;;;;;;;2.05;0.68;;;26.80;60.60;;;;;;5076742;28;20197;-81
2023/08/21 01:47:46;;;;;;;0.40;0.35;;;26.80;60.80;;;;;;5076598;28;20199;-81
2023/08/21 01:50:17;;;;;;;0.30;0.30;;;26.80;60.80;;;;;;5075793;28;20190;-82
2023/08/21 01:52:46;;;;;;;0.30;0.30;;;26.80;60.80;;;;;;5073706;28;20901;-82
2023/08/21 01:55:16;;;;;;;0.68;0.68;;;26.70;60.80;;;;;;5073034;28;20193;-82
2023/08/21 01:57:44;;;;;;;1.05;0.30;;;26.70;61.00;;;;;;5072607;28;20213;-82
2023/08/21 02:00:14;;;;;;;0.93;0.47;;;26.70;61.10;;;;;;5075616;28;20206;-82
2023/08/21 02:02:42;;;;;;;0.93;0.75;;;26.70;61.10;;;;;;5070402;28;20221;-81
2023/08/21 02:05:11;;;;;;;0.60;0.60;;;26.70;61.10;;;;;;5074508;28;20204;-81
2023/08/21 02:07:39;;;;;;;0.63;0.45;;;26.70;61.30;;;;;;5071955;28;20194;-82
2023/08/21 02:10:09;;;;;;;0.50;0.50;;;26.60;61.30;;;;;;5071072;28;20278;-81
2023/08/21 02:12:39;;;;;;;0.45;0.45;;;26.60;61.30;;;;;;5070848;28;20190;-81
2023/08/21 02:15:10;;;;;;;0.57;0.50;;;26.60;61.30;;;;;;5063968;28;20212;-81
2023/08/21 02:17:42;;;;;;;0.85;0.52;;;26.70;61.40;;;;;;5062067;28;20253;-81
2023/08/21 02:20:12;;;;;;;0.63;0.63;;;26.60;61.30;;;;;;5071673;28;20201;-81
2023/08/21 02:22:40;;;;;;;1.30;0.77;;;26.60;62.20;;;;;;5071764;28;20194;-81
2023/08/21 02:25:09;;;;;;;0.40;0.40;;;26.60;61.50;;;;;;5071071;28;20206;-82
2023/08/21 02:27:39;;;;;;;0.70;0.70;;;26.60;61.60;;;;;;5073886;28;20202;-82
2023/08/21 02:30:08;;;;;;;0.85;0.68;;;26.60;61.60;;;;;;5072347;28;20274;-80
2023/08/21 02:32:38;;;;;;;1.15;0.73;;;26.50;61.70;;;;;;5074186;28;20200;-81
2023/08/21 02:35:08;;;;;;;0.30;0.30;;;26.50;61.80;;;;;;5071844;28;20200;-81
2023/08/21 02:37:38;;;;;;;0.45;0.45;;;26.50;61.80;;;;;;5071101;28;20218;-81
2023/08/21 02:40:09;;;;;;;0.75;0.63;;;26.50;61.80;;;;;;5070546;28;20284;-83
2023/08/21 02:42:39;;;;;;;0.30;0.30;;;26.50;61.80;;;;;;5072483;28;20189;-82
2023/08/21 02:45:09;;;;;;;0.40;0.40;;;26.40;61.90;;;;;;5068037;28;20190;-81
2023/08/21 02:47:38;;;;;;;0.40;0.40;;;26.40;62.00;;;;;;5071012;28;20202;-81
2023/08/21 02:50:09;;;;;;;0.43;0.43;;;26.40;61.90;;;;;;5069990;28;20201;-82
2023/08/21 02:52:38;;;;;;;0.68;0.68;;;26.40;62.10;;;;;;5071613;28;20189;-81
2023/08/21 02:55:08;;;;;;;0.68;0.68;;;26.40;62.10;;;;;;5070681;28;20726;-81
2023/08/21 02:57:36;;;;;;;0.70;0.70;;;26.40;62.20;;;;;;5069586;28;20314;-82
2023/08/21 03:00:08;;;;;;;0.95;0.82;;;26.40;62.20;;;;;;5067865;28;20201;-82
2023/08/21 03:02:36;;;;;;;0.47;0.35;;;26.40;62.30;;;;;;5070114;28;20194;-81
2023/08/21 03:05:06;;;;;;;0.50;0.40;;;26.30;62.40;;;;;;5091342;28;20725;-82
2023/08/21 03:07:36;;;;;;;0.40;0.40;;;26.40;62.50;;;;;;5071653;28;20226;-81
2023/08/21 03:10:05;;;;;;;1.05;0.73;;;26.30;62.50;;;;;;5072536;28;20199;-82
2023/08/21 03:12:33;;;;;;;0.60;0.60;;;26.30;62.50;;;;;;5072738;28;20717;-81
2023/08/21 03:15:01;;;;;;;0.60;0.50;;;26.30;62.50;;;;;;5072620;28;20202;-83
2023/08/21 03:17:31;;;;;;;0.43;0.43;;;26.30;62.60;;;;;;5069454;28;20700;-81
2023/08/21 03:20:00;;;;;;;0.20;0.20;;;26.30;62.50;;;;;;5069221;28;20190;-82
2023/08/21 03:22:29;;;;;;;0.68;0.68;;;26.30;62.70;;;;;;5069490;28;20206;-82
2023/08/21 03:24:57;;;;;;;0.73;0.55;;;26.30;62.70;;;;;;5071003;28;20193;-81
2023/08/21 03:27:26;;;;;;;0.52;0.52;;;26.30;62.80;;;;;;5071674;28;20245;-81
2023/08/21 03:29:54;;;;;;;0.20;0.20;;;26.20;62.90;;;;;;5072712;28;20231;-82
2023/08/21 03:32:22;;;;;;;0.43;0.43;;;26.20;62.80;;;;;;5074036;28;20220;-82
2023/08/21 03:34:52;;;;;;;0.30;0.30;;;26.20;62.90;;;;;;5071778;28;20332;-81
2023/08/21 03:37:21;;;;;;;0.50;0.50;;;26.20;63.00;;;;;;5068027;28;20195;-81
2023/08/21 03:39:50;;;;;;;0.88;0.73;;;26.20;62.90;;;;;;5070067;28;20788;-82
2023/08/21 03:42:18;;;;;;;1.25;0.60;;;26.20;63.20;;;;;;5071054;28;20205;-81
2023/08/21 03:44:49;;;;;;;0.40;0.40;;;26.20;63.30;;;;;;5072861;28;20283;-82
2023/08/21 03:47:18;;;;;;;0.30;0.30;;;26.20;63.20;;;;;;5069854;28;20195;-82
2023/08/21 03:49:48;;;;;;;0.52;0.40;;;26.20;63.20;;;;;;5070398;28;20203;-82
2023/08/21 03:52:18;;;;;;;0.40;0.35;;;26.20;63.20;;;;;;5069079;28;20562;-82
2023/08/21 03:54:46;;;;;;;0.20;0.20;;;26.20;63.20;;;;;;5069170;28;20209;-81
2023/08/21 03:57:15;;;;;;;0.40;0.30;;;26.20;63.20;;;;;;5067867;28;20197;-81
2023/08/21 03:59:43;;;;;;;5.45;0.55;;;26.20;63.30;;;;;;5064505;28;20229;-81
2023/08/21 04:02:11;;;;;;;0.30;0.28;;;26.20;63.30;;;;;;5068865;28;20201;-81
2023/08/21 04:04:40;;;;;;;0.35;0.35;;;26.20;63.30;;;;;;5068766;28;20194;-82
2023/08/21 04:07:08;;;;;;;1.92;1.10;;;26.20;63.30;;;;;;5068362;28;20197;-82
2023/08/21 04:09:38;;;;;;;1.17;0.70;;;26.20;63.30;;;;;;5071016;28;20205;-82
2023/08/21 04:12:07;;;;;;;0.40;0.40;;;26.20;63.50;;;;;;5067299;28;20567;-80
2023/08/21 04:14:35;;;;;;;0.68;0.68;;;26.20;63.50;;;;;;5068098;28;20206;-81
2023/08/21 04:17:04;;;;;;;0.77;0.77;;;26.20;63.60;;;;;;5068657;28;20207;-81
2023/08/21 04:19:33;;;;;;;0.47;0.47;;;26.20;63.60;;;;;;5071356;28;20241;-82
2023/08/21 04:22:02;;;;;;;1.73;0.98;;;26.30;63.70;;;;;;5070500;28;20198;-82
2023/08/21 04:24:31;;;;;;;0.40;0.40;;;26.30;64.30;;;;;;5071075;28;20706;-82
2023/08/21 04:27:01;;;;;;;1.25;0.68;;;26.30;63.80;;;;;;5066906;28;20202;-80
2023/08/21 04:29:29;;;;;;;0.68;0.68;;;26.30;63.90;;;;;;5071936;28;20201;-81
2023/08/21 04:31:59;;;;;;;1.10;1.00;;;26.30;64.00;;;;;;5070270;28;20293;-82
2023/08/21 04:34:28;;;;;;;0.65;0.60;;;26.30;64.10;;;;;;5072307;28;20276;-82
2023/08/21 04:36:57;;;;;;;1.10;0.82;;;26.30;64.00;;;;;;5083120;28;20202;-83
2023/08/21 04:39:26;;;;;;;0.40;0.40;;;26.40;64.10;;;;;;5084002;28;20218;-82
2023/08/21 04:41:54;;;;;;;1.45;0.98;;;26.40;64.20;;;;;;5079399;28;20216;-82
2023/08/21 04:44:24;;;;;;;0.70;0.63;;;26.40;64.20;;;;;;5084119;28;20193;-81
2023/08/21 04:46:53;;;;;;;0.93;0.82;;;26.40;64.10;;;;;;5084368;28;20194;-83
2023/08/21 04:49:21;;;;;;;1.35;0.68;;;26.50;64.10;;;;;;5083161;28;20189;-84
2023/08/21 04:51:51;;;;;;;0.75;0.60;;;26.50;64.10;;;;;;5079627;28;20205;-90
2023/08/21 04:54:20;;;;;;;0.63;0.55;;;26.50;64.00;;;;;;5092672;28;20533;-84
2023/08/21 04:56:48;;;;;;;0.43;0.43;;;26.60;64.00;;;;;;5098754;28;20205;-81
2023/08/21 04:59:17;;;;;;;4.15;0.57;;;26.60;64.70;;;;;;5096974;28;20250;-82
2023/08/21 05:01:47;;;;;;;0.45;0.45;;;26.70;64.00;;;;;;5096630;28;20234;-81
2023/08/21 05:04:15;;;;;;;1.50;0.73;;;26.70;63.90;;;;;;5091230;28;20194;-83
2023/08/21 05:06:44;;;;;;;0.32;0.32;;;26.70;63.80;;;;;;5094457;28;20198;-80
2023/08/21 05:09:21;;;;;;;0.50;0.50;;;26.70;63.80;;;;;;5096033;28;20228;-81
2023/08/21 05:11:50;;;;;;;0.40;0.40;;;26.80;63.80;;;;;;5096832;28;20201;-80
2023/08/21 05:14:19;;;;;;;0.57;0.35;;;26.90;63.80;;;;;;5091437;28;20201;-83
2023/08/21 05:16:50;;;;;;;0.40;0.40;;;26.90;63.70;;;;;;5094857;28;20197;-80
2023/08/21 05:19:19;;;;;;;0.40;0.40;;;26.90;63.70;;;;;;5083643;28;20229;-83
2023/08/21 05:21:47;;;;;;;0.93;0.80;;;27.00;63.80;;;;;;5083148;28;20194;-82
2023/08/21 05:24:16;;;;;;;0.32;0.32;;;27.10;64.00;;;;;;5082575;28;20239;-83
2023/08/21 05:26:45;;;;;;;0.45;0.45;;;27.10;63.90;;;;;;5085132;28;20732;-83
2023/08/21 05:29:13;;;;;;;0.38;0.38;;;27.10;63.80;;;;;;5085474;28;20292;-83
2023/08/21 05:31:42;;;;;;;0.52;0.30;;;27.20;63.90;;;;;;5086865;28;20185;-83
2023/08/21 05:34:12;;;;;;;0.50;0.50;;;27.20;63.90;;;;;;5099033;28;20594;-84
2023/08/21 05:36:41;;;;;;;0.40;0.40;;;27.20;63.90;;;;;;5098887;28;20659;-85
2023/08/21 05:39:09;;;;;;;0.85;0.50;;;27.30;63.90;;;;;;5098451;28;20284;-91
2023/08/21 05:41:39;;;;;;;0.98;0.80;;;27.40;64.00;;;;;;5096976;28;20273;-88
2023/08/21 05:44:08;;;;;;;1.05;0.80;;;27.40;64.00;;;;;;5091649;28;20220;-86
2023/08/21 05:46:38;;;;;;;0.30;0.30;;;27.50;63.90;;;;;;5089074;28;20236;-89
2023/08/21 05:49:07;;;;;;;0.52;0.40;;;27.50;64.80;;;;;;5092162;28;20187;-90
2023/08/21 05:51:37;;;;;;;0.65;0.65;;;27.60;63.80;;;;;;5099542;28;20205;-89
2023/08/21 05:54:06;;;;;;;0.35;0.35;;;27.70;63.70;;;;;;5101406;28;20202;-88
2023/08/21 05:56:35;;;;;;;2.10;1.05;;;27.70;63.70;;;;;;5104568;28;20202;-87
2023/08/21 05:59:04;;;;;;;0.70;0.70;;;27.70;63.70;;;;;;5105637;28;20286;-86
2023/08/21 06:01:34;;;;;;;0.52;0.52;;;27.80;63.80;;;;;;5104102;28;20422;-86
2023/08/21 06:04:03;;;;;;;0.63;0.60;;;27.90;63.80;;;;;;5102579;28;20216;-87
2023/08/21 06:06:32;;;;;;;1.55;0.80;;;28.00;63.90;;;;;;5102397;28;20190;-88
2023/08/21 06:09:16;;;;;;;1.95;1.05;;;28.00;63.80;;;;;;5102923;28;20675;-90
2023/08/21 06:11:44;;;;;;;1.42;0.77;;;28.10;63.70;;;;;;5102064;28;20193;-90
2023/08/21 06:14:14;;;;;;;2.45;1.08;;;28.20;63.60;;;;;;5101702;28;20224;-88
2023/08/21 06:16:43;;;;;;;1.83;1.45;;;28.30;63.50;;;;;;5101186;28;20209;-88
2023/08/21 06:19:14;;;;;;;1.15;0.98;;;28.40;63.40;;;;;;5110005;28;20238;-89
2023/08/21 06:21:43;;;;;;;1.02;0.88;;;28.50;63.30;;;;;;5110902;28;20205;-89
2023/08/21 06:24:13;;;;;;;1.05;0.75;;;28.50;63.10;;;;;;5111750;28;20170;-87
2023/08/21 06:26:42;;;;;;;0.47;0.47;;;28.60;63.00;;;;;;5113298;28;20189;-89
2023/08/21 06:29:11;;;;;;;0.82;0.82;;;28.70;62.90;;;;;;5108472;28;20202;-86
2023/08/21 06:31:39;;;;;;;0.50;0.50;;;28.80;62.80;;;;;;5110850;28;20220;-88
2023/08/21 06:34:08;;;;;;;0.30;0.30;;;28.90;62.70;;;;;;5111178;28;20209;-88
2023/08/21 06:36:39;;;;;;;0.70;0.65;;;29.00;62.50;;;;;;5107203;28;20278;-88
2023/08/21 06:39:10;;;;;;;0.85;0.65;;;29.00;63.30;;;;;;5109762;28;20189;-87
2023/08/21 06:41:41;;;;;;;1.00;0.45;;;29.10;62.30;;;;;;5097179;28;20564;-88
2023/08/21 06:44:09;;;;;;;0.30;0.30;;;29.20;62.20;;;;;;5095187;28;20743;-89
2023/08/21 06:46:38;;;;;;;0.52;0.52;;;29.30;62.10;;;;;;5093018;28;20289;-88
2023/08/21 06:49:08;;;;;;;0.57;0.57;;;29.40;62.00;;;;;;5096348;28;20262;-89
2023/08/21 06:51:38;;;;;;;0.63;0.63;;;29.50;61.90;;;;;;5092117;28;20202;-88
2023/08/21 06:54:07;;;;;;;1.08;0.52;;;29.60;61.70;;;;;;5095998;28;20633;-90
2023/08/21 06:56:36;;;;;;;1.45;0.57;;;29.70;61.40;;;;;;5100763;28;20898;-90
2023/08/21 06:59:06;;;;;;;3.53;0.60;;;29.70;61.20;;;;;;5099958;28;20196;-91
2023/08/21 07:01:35;;;;;;;3.08;0.47;;;29.80;61.10;;;;;;5094593;28;20213;-91
2023/08/21 07:04:03;;;;;;;0.73;0.73;;;29.90;60.50;;;;;;5090683;28;20198;-89
2023/08/21 07:06:33;;;;;;;0.40;0.40;;;30.00;60.50;;;;;;5090474;28;20205;-89
2023/08/21 07:09:04;;;;;;;0.30;0.30;;;30.00;60.40;;;;;;5092125;28;20187;-89
2023/08/21 07:11:33;;;;;;;0.55;0.50;;;30.10;60.20;;;;;;5089471;28;20217;-89
2023/08/21 07:14:02;;;;;;;2.92;0.85;;;30.20;60.00;;;;;;5087161;28;20182;-89
2023/08/21 07:16:35;;;;;;;0.30;0.30;;;30.30;59.70;;;;;;5093757;28;20206;-90
2023/08/21 07:19:04;;;;;;;0.30;0.30;;;30.40;59.60;;;;;;5091444;28;20780;-89
2023/08/21 07:21:35;;;;;;;1.42;0.85;;;30.40;59.40;;;;;;5091135;28;20232;-88
2023/08/21 07:24:05;;;;;;;0.75;0.45;;;30.50;59.30;;;;;;5088775;28;20543;-90
2023/08/21 07:26:34;;;;;;;0.20;0.20;;;30.60;59.10;;;;;;5089484;28;20198;-88
2023/08/21 07:29:04;;;;;;;1.25;0.80;;;30.70;58.90;;;;;;5087900;28;20228;-88
2023/08/21 07:31:34;;;;;;;0.52;0.52;;;30.80;58.80;;;;;;5085407;28;20215;-91
2023/08/21 07:34:02;;;;;;;1.17;0.82;;;30.80;58.50;;;;;;5088818;28;20673;-87
2023/08/21 07:36:33;;;;;;;0.70;0.70;;;30.90;58.40;;;;;;5086296;28;20198;-88
2023/08/21 07:39:01;;;;;;;0.63;0.50;;;30.90;57.90;;;;;;5088892;28;20217;-89
2023/08/21 07:41:30;;;;;;;0.85;0.85;;;31.10;57.40;;;;;;5089097;28;20229;-90
2023/08/21 07:43:59;;;;;;;2.00;0.80;;;31.20;57.30;;;;;;5091972;28;20297;-90
2023/08/21 07:46:28;;;;;;;0.70;0.70;;;31.20;57.30;;;;;;5091328;28;20208;-90
2023/08/21 07:48:58;;;;;;;0.70;0.57;;;31.30;57.20;;;;;;5085895;28;20206;-87
2023/08/21 07:51:27;;;;;;;0.77;0.70;;;31.40;56.60;;;;;;5095398;28;20190;-86
2023/08/21 07:53:56;;;;;;;1.00;0.52;;;31.40;56.20;;;;;;5083219;28;20202;-86
2023/08/21 07:56:28;;;;;;;0.50;0.50;;;31.50;56.00;;;;;;5082634;28;20201;-86
2023/08/21 07:58:57;;;;;;;0.77;0.70;;;31.60;55.90;;;;;;5081871;28;20674;-87
2023/08/21 08:01:25;;;;;;;0.60;0.60;;;31.70;55.50;;;;;;5084736;28;20227;-88
2023/08/21 08:03:55;;;;;;;0.47;0.43;;;31.70;54.50;;;;;;5085405;28;20198;-90
2023/08/21 08:06:25;;;;;;;0.40;0.40;;;31.80;54.40;;;;;;5070326;28;20657;-90
2023/08/21 08:08:54;;;;;;;2.55;0.80;;;31.90;54.30;;;;;;5087786;28;20198;-90
2023/08/21 08:11:23;;;;;;;0.30;0.30;;;32.00;54.30;;;;;;5090307;28;20207;-88
2023/08/21 08:13:52;;;;;;;2.50;1.40;;;32.00;54.00;;;;;;5094382;28;20203;-89
2023/08/21 08:16:20;;;;;;;1.80;1.30;;;32.10;53.20;;;;;;5091337;28;20221;-89
2023/08/21 08:18:49;;;;;;;0.47;0.47;;;32.20;53.10;;;;;;5091981;28;20247;-88
2023/08/21 08:21:21;;;;;;;0.50;0.50;;;32.20;53.30;;;;;;5101975;28;20236;-90
2023/08/21 08:23:51;;;;;;;1.95;1.05;;;32.30;53.30;;;;;;5083641;28;20474;-84
2023/08/21 08:26:19;;;;;;;1.48;1.17;;;32.40;52.80;;;;;;5077358;28;20198;-83
2023/08/21 08:28:48;;;;;;;0.40;0.40;;;32.50;53.10;;;;;;5077368;28;20210;-83
2023/08/21 08:31:17;;;;;;;0.65;0.50;;;32.50;53.10;;;;;;5077682;28;20225;-87
2023/08/21 08:33:47;;;;;;;1.17;0.90;;;32.60;53.10;;;;;;5075470;28;20222;-85
2023/08/21 08:36:17;;;;;;;0.70;0.70;;;32.60;52.70;;;;;;5077558;28;20226;-86
2023/08/21 08:38:46;;;;;;;0.52;0.52;;;32.70;52.50;;;;;;5078644;28;20713;-86
2023/08/21 08:41:27;;;;;;;0.40;0.40;;;32.80;52.30;;;;;;5077899;28;20572;-85
2023/08/21 08:43:59;;;;;;;1.45;0.65;;;32.90;52.40;;;;;;5089729;28;20224;-85
2023/08/21 08:46:29;;;;;;;0.73;0.73;;;32.90;52.40;;;;;;5094839;28;20272;-86
2023/08/21 08:49:01;;;;;;;1.75;1.00;;;33.00;52.10;;;;;;5086573;28;20166;-84
2023/08/21 08:51:31;;;;;;;1.00;0.68;;;33.10;52.20;;;;;;5082559;28;20198;-85
2023/08/21 08:54:01;;;;;;;1.00;0.73;;;33.20;51.90;;;;;;5076564;28;20253;-83
2023/08/21 08:56:31;;;;;;;0.60;0.50;;;33.20;51.80;;;;;;5076352;28;20289;-85
2023/08/21 08:58:59;;;;;;;0.63;0.63;;;33.30;51.90;;;;;;5078243;28;20190;-86
2023/08/21 09:01:28;;;;;;;0.75;0.55;;;33.40;51.70;;;;;;5075808;28;20221;-84
2023/08/21 09:03:57;;;;;;;0.73;0.73;;;33.40;51.60;;;;;;5077781;28;20205;-87
2023/08/21 09:06:30;;;;;;;0.60;0.60;;;33.40;51.40;;;;;;5075832;28;20200;-86
2023/08/21 09:08:58;;;;;;;0.57;0.57;;;33.50;51.30;;;;;;5077592;28;20199;-85
2023/08/21 09:11:27;;;;;;;2.47;0.93;;;33.60;51.40;;;;;;5078369;28;20278;-89
2023/08/21 09:13:58;;;;;;;3.45;1.58;;;33.60;50.70;;;;;;5074885;28;20638;-87
2023/08/21 09:16:27;;;;;;;0.40;0.40;;;33.60;50.60;;;;;;5074674;28;20213;-84
2023/08/21 09:18:57;;;;;;;3.15;0.90;;;33.70;50.00;;;;;;5078635;28;20217;-85
2023/08/21 09:21:28;;;;;;;0.30;0.30;;;33.70;49.90;;;;;;5078313;28;20289;-85
2023/08/21 09:24:04;;;;;;;0.98;0.45;;;33.80;50.10;;;;;;5081067;28;20198;-85
2023/08/21 09:26:33;;;;;;;0.40;0.40;;;33.80;50.20;;;;;;5082348;28;20724;-87
2023/08/21 09:29:06;;;;;;;2.03;1.02;;;33.90;50.10;;;;;;5081340;28;20195;-85
2023/08/21 09:31:37;;;;;;;1.25;0.68;;;34.00;50.10;;;;;;5083388;28;20190;-85
2023/08/21 09:34:08;;;;;;;0.68;0.60;;;34.00;50.00;;;;;;5080856;28;20190;-87
2023/08/21 09:36:39;;;;;;;0.50;0.50;;;34.10;50.00;;;;;;5078272;28;20201;-85
2023/08/21 09:39:16;;;;;;;0.63;0.63;;;34.10;49.80;;;;;;5077526;28;20205;-85
2023/08/21 09:41:56;;;;;;;0.65;0.65;;;34.20;49.60;;;;;;5082409;28;20282;-91
2023/08/21 09:44:27;;;;;;;0.98;0.63;;;34.20;49.10;;;;;;5081621;28;20669;-87
2023/08/21 09:46:56;;;;;;;0.40;0.40;;;34.30;49.30;;;;;;5081312;28;20208;-86
2023/08/21 09:49:25;;;;;;;0.32;0.32;;;34.40;49.20;;;;;;5078977;28;20198;-86
2023/08/21 09:51:55;;;;;;;2.05;1.13;;;34.40;49.40;;;;;;5077369;28;20201;-85
2023/08/21 09:54:24;;;;;;;0.40;0.32;;;34.40;49.10;;;;;;5080148;28;20197;-87
2023/08/21 09:56:52;;;;;;;0.60;0.60;;;34.50;49.20;;;;;;5081283;28;20198;-85
2023/08/21 09:59:22;;;;;;;0.70;0.70;;;34.60;49.10;;;;;;5075871;28;20203;-86
2023/08/21 10:01:53;;;;;;;1.05;0.82;;;34.70;49.20;;;;;;5078118;28;20210;-85
2023/08/21 10:04:24;;;;;;;0.40;0.40;;;34.80;49.00;;;;;;5082409;28;20197;-87
2023/08/21 10:06:55;;;;;;;0.40;0.40;;;34.80;49.00;;;;;;5076413;28;20194;-84
2023/08/21 10:09:25;;;;;;;0.85;0.50;;;34.80;48.70;;;;;;5089982;28;20193;-84
2023/08/21 10:11:54;;;;;;;1.02;0.95;;;34.90;48.60;;;;;;5092632;28;20280;-84
2023/08/21 10:14:24;;;;;;;0.40;0.40;;;35.00;48.70;;;;;;5084974;28;20222;-82
2023/08/21 10:16:55;;;;;;;0.38;0.30;;;35.10;48.50;;;;;;5097307;28;20223;-80
2023/08/21 10:19:23;;;;;;;0.75;0.75;;;35.20;48.10;;;;;;5087696;28;20234;-82
2023/08/21 10:21:58;;;;;;;0.50;0.50;;;35.20;47.40;;;;;;5076280;28;20221;-82
2023/08/21 10:24:29;;;;;;;0.82;0.73;;;35.40;47.60;;;;;;5081626;28;20278;-82
2023/08/21 10:27:00;;;;;;;0.52;0.50;;;35.40;47.60;;;;;;5093392;28;20190;-81
2023/08/21 10:29:31;;;;;;;0.30;0.30;;;35.40;47.50;;;;;;5086427;28;20883;-82
2023/08/21 10:32:05;;;;;;;0.88;0.88;;;35.50;47.60;;;;;;5073138;28;20187;-83
2023/08/21 10:34:37;;;;;;;0.30;0.30;;;35.50;47.80;;;;;;5072847;28;20193;-82
2023/08/21 10:37:09;;;;;;;0.68;0.40;;;35.50;47.70;;;;;;5072366;28;20191;-82
2023/08/21 10:39:39;;;;;;;0.55;0.55;;;35.40;47.60;;;;;;5075443;28;20197;-82
2023/08/21 10:42:13;;;;;;;1.05;1.05;;;35.40;47.50;;;;;;5074568;28;20232;-82
2023/08/21 10:44:51;;;;;;;2.17;1.10;;;35.40;46.50;;;;;;5075864;28;20190;-82
2023/08/21 10:47:23;;;;;;;0.98;0.85;;;35.40;46.40;;;;;;5074442;28;21076;-82
2023/08/21 10:49:54;;;;;;;0.70;0.70;;;35.30;46.50;;;;;;5076848;28;20394;-83
2023/08/21 10:52:24;;;;;;;0.40;0.40;;;35.30;46.70;;;;;;5073923;28;20715;-82
2023/08/21 10:54:54;;;;;;;0.52;0.47;;;35.40;46.80;;;;;;5072609;28;20197;-84
2023/08/21 10:57:24;;;;;;;0.57;0.57;;;35.40;46.80;;;;;;5068547;28;20201;-82
2023/08/21 10:59:58;;;;;;;0.30;0.30;;;35.50;46.60;;;;;;5072416;28;20228;-82
2023/08/21 11:02:29;;;;;;;0.77;0.57;;;35.50;46.60;;;;;;5071208;28;20241;-83
2023/08/21 11:04:59;;;;;;;0.63;0.63;;;35.50;46.70;;;;;;5073203;28;20555;-82
2023/08/21 11:07:28;;;;;;;0.70;0.50;;;35.50;46.40;;;;;;5069805;28;20266;-82
2023/08/21 11:09:57;;;;;;;2.38;0.75;;;35.50;46.40;;;;;;5087636;28;20220;-83
2023/08/21 11:12:26;;;;;;;0.80;0.80;;;35.40;46.10;;;;;;5093984;28;20193;-82
2023/08/21 11:14:54;;;;;;;1.27;0.52;;;35.40;45.90;;;;;;5091544;28;20638;-84
2023/08/21 11:17:23;;;;;;;4.80;1.20;;;35.40;46.10;;;;;;5073690;28;20211;-84
2023/08/21 11:19:53;;;;;;;1.85;0.85;;;35.40;46.40;;;;;;5073181;28;20194;-85
2023/08/21 11:22:29;;;;;;;2.28;0.57;;;35.40;46.30;;;;;;5072880;28;21018;-85
2023/08/21 11:24:57;;;;;;;0.57;0.50;;;35.30;46.30;;;;;;5073482;28;20201;-84
2023/08/21 11:27:26;;;;;;;0.65;0.65;;;35.40;46.30;;;;;;5075534;28;20324;-85
2023/08/21 11:29:55;;;;;;;0.43;0.43;;;35.40;46.30;;;;;;5073288;28;20560;-84
2023/08/21 11:32:24;;;;;;;2.80;0.70;;;35.60;46.50;;;;;;5074368;28;20206;-85
2023/08/21 11:34:56;;;;;;;1.48;0.88;;;35.60;46.40;;;;;;5075069;28;20288;-84
2023/08/21 11:37:26;;;;;;;0.63;0.47;;;35.60;46.50;;;;;;5073035;28;20620;-85
2023/08/21 11:39:57;;;;;;;0.50;0.45;;;35.70;46.40;;;;;;5073686;28;20202;-84
2023/08/21 11:42:31;;;;;;;1.00;0.65;;;35.70;46.30;;;;;;5074670;28;20204;-85
2023/08/21 11:45:00;;;;;;;0.85;0.75;;;35.70;46.00;;;;;;5074993;28;20242;-84
2023/08/21 11:47:34;;;;;;;0.40;0.40;;;35.70;46.00;;;;;;5073964;28;20186;-84
2023/08/21 11:50:10;;;;;;;0.73;0.65;;;35.70;46.00;;;;;;5071817;28;20284;-84
2023/08/21 11:52:39;;;;;;;0.75;0.63;;;35.70;45.80;;;;;;5076089;28;20200;-83
2023/08/21 11:55:10;;;;;;;0.77;0.73;;;35.70;46.10;;;;;;5079356;28;20197;-83
2023/08/21 11:57:48;;;;;;;1.42;1.15;;;35.70;46.30;;;;;;5076301;28;20186;-85
2023/08/21 12:00:18;;;;;;;0.73;0.70;;;35.70;46.20;;;;;;5076094;28;20233;-84
2023/08/21 12:02:56;;;;;;;3.70;1.25;;;35.70;46.30;;;;;;5079929;28;20206;-85
2023/08/21 12:05:28;;;;;;;0.63;0.50;;;35.70;46.30;;;;;;5077883;28;20247;-83
2023/08/21 12:07:57;;;;;;;0.35;0.35;;;35.80;46.20;;;;;;5070288;28;20205;-84
2023/08/21 12:10:26;;;;;;;2.05;0.93;;;35.80;46.00;;;;;;5072921;28;20212;-84
2023/08/21 12:12:55;;;;;;;0.77;0.52;;;35.80;45.40;;;;;;5072900;28;20205;-84
2023/08/21 12:15:23;;;;;;;0.57;0.57;;;35.90;44.80;;;;;;5073160;28;20232;-85
2023/08/21 12:17:52;;;;;;;0.50;0.50;;;35.90;43.60;;;;;;5075853;28;20217;-84
2023/08/21 12:20:20;;;;;;;0.85;0.60;;;36.10;44.20;;;;;;5075440;28;20190;-84
2023/08/21 12:22:50;;;;;;;1.08;0.60;;;36.10;44.40;;;;;;5071947;28;20723;-84
2023/08/21 12:25:19;;;;;;;0.60;0.55;;;36.20;44.50;;;;;;5076156;28;20197;-83
2023/08/21 12:27:48;;;;;;;1.55;0.60;;;36.30;44.60;;;;;;5077550;28;20274;-83
2023/08/21 12:30:28;;;;;;;0.63;0.52;;;36.40;44.60;;;;;;5075230;28;20197;-81
2023/08/21 12:32:56;;;;;;;1.02;0.93;;;36.50;44.70;;;;;;5073065;28;20264;-83
2023/08/21 12:35:44;;;;;;;1.25;0.90;;;36.60;44.50;;;;;;5071996;28;20205;-84
2023/08/21 12:38:14;;;;;;;0.65;0.60;;;36.70;44.40;;;;;;5072394;28;20266;-82
2023/08/21 12:40:42;;;;;;;1.23;0.90;;;36.80;44.10;;;;;;5076997;28;20239;-84
2023/08/21 12:43:10;;;;;;;1.60;1.13;;;36.90;43.90;;;;;;5078120;28;20820;-85
2023/08/21 12:45:39;;;;;;;1.30;1.13;;;36.90;43.70;;;;;;5073815;28;20282;-84
2023/08/21 12:48:08;;;;;;;0.73;0.73;;;36.90;43.50;;;;;;5072813;28;20194;-82
2023/08/21 12:50:36;;;;;;;0.60;0.60;;;36.70;43.90;;;;;;5074788;28;20210;-85
2023/08/21 12:53:05;;;;;;;1.15;0.80;;;36.70;44.20;;;;;;5072821;28;20205;-83
2023/08/21 12:55:35;;;;;;;0.77;0.65;;;36.60;46.20;;;;;;5076369;28;20215;-84
2023/08/21 12:58:06;;;;;;;0.68;0.68;;;36.40;47.90;;;;;;5077801;28;20204;-83
2023/08/21 13:00:34;;;;;;;0.60;0.60;;;36.30;47.10;;;;;;5079509;28;20544;-88